Airfield :
LOGIN :

Register | Disclaimer

   EN    FR    IT 

 










Legend :    VFR   Marginal VFR   IFR   Intensive IFR   Very Intensive IFR
Visi :
Ceiling :
>= 8 km
>= 3000ft
5 to 8 km
1000 to 3000 ft
1500m to 5 km
500 to 1000 ft
800 to 1500m
200 to 500 ft
< 800m
< 200 ft
Symbols :   Thunderstorms  Fog  Heavy snow  Heavy precipitations  Wind > 20 kt
SIGMETs :     Misc.  Thunderstorms  Icing  Turbulence  Mountain Waves  Volcanic Ashes







- Airport Elevation : 600 ft
- IATA code : VIE


LOWW - Vienna Schwechat

CURRENT METAR :
  • 221950Z 34010KT 8000 -SN FEW038 BKN042 M02/M04 Q1018 R88/29//95 NOSIG

EXPIRED METARs :
  • 221920Z 34010KT 7000 -SN FEW022 BKN040 M02/M04 Q1018 R88/29//95 NOSIG
  • 221850Z 35009KT 7000 -SN FEW008 OVC040 M02/M04 Q1018 R88/29//95 TEMPO 4000 -SN BR
  • 221820Z 34009KT 7000 -SN FEW007 BKN024 M02/M03 Q1018 R88/29//95 TEMPO 4000 -SN BR
  • 221750Z 35010KT 5000 -SN BR FEW006 BKN020 M02/M03 Q1018 R88/29//95 TEMPO 4000 -SN BR
  • 221720Z 35010KT 4800 -SN BR FEW007 BKN018 M02/M03 Q1018 R88/29//95 TEMPO 5000 -SN BR

TAF TAF LOWW
Valid from the 22 at 18:00 until the 24 at 00:00 UTC


221715Z 2218/2324 34007KT 6000 FEW015 BKN030 TX01/2315Z TNM03/2400Z
TEMPO 2218/2224 2000 -SN BR FEW010 OVC015
TEMPO 2307/2314 3000 -SN BR FEW010 OVC015
No reported NOTAMs for that airfield.



MET'MAP, your aeronautical weather chart ! - Copyright ORBIFLY December 2007 - Disclaimer

ORBIFLY MET'MAP TEAM :

Programming & Development : Alexandra Zaïnal
Concept & Development : Baudouin d'Aumeries
Co-Development & Prog : Marc-Olivier Méhu
Technical & hardware support : Manuel Goepfert

Contact : metmap@orbifly.com




SOURCES & CREDITS :

   NOAA